createdAt,value
2022-07-30T00:03:24.957Z,97
2022-07-30T00:08:32.853Z,99
2022-07-30T00:13:40.075Z,97
2022-07-30T00:18:47.833Z,95
2022-07-30T00:23:55.725Z,95
2022-07-30T00:29:01.672Z,95
2022-07-30T00:34:10.134Z,94
2022-07-30T00:39:17.330Z,96
2022-07-30T00:44:25.240Z,96
2022-07-30T00:49:33.590Z,94
2022-07-30T00:54:41.718Z,94
2022-07-30T00:59:49.658Z,94
2022-07-30T01:04:56.562Z,95
2022-07-30T01:10:05.419Z,94
2022-07-30T01:15:12.315Z,94
2022-07-30T01:20:22.213Z,94
2022-07-30T01:25:29.170Z,94
2022-07-30T01:30:35.926Z,96
2022-07-30T01:35:43.624Z,95
2022-07-30T01:40:52.066Z,94
2022-07-30T01:45:59.896Z,92
2022-07-30T01:51:06.632Z,92
2022-07-30T01:56:14.798Z,92
2022-07-30T02:01:21.497Z,94
2022-07-30T02:06:29.329Z,92
2022-07-30T02:11:37.134Z,96
2022-07-30T02:16:45.127Z,92
2022-07-30T02:21:53.094Z,92
2022-07-30T02:27:00.168Z,94
2022-07-30T02:32:07.841Z,96
2022-07-30T02:37:16.875Z,92
2022-07-30T02:42:24.354Z,91
2022-07-30T02:47:38.324Z,91
2022-07-30T02:52:46.134Z,94
2022-07-30T02:57:52.979Z,92
2022-07-30T03:03:00.784Z,92
2022-07-30T03:08:07.927Z,95
2022-07-30T03:13:15.731Z,91
2022-07-30T03:18:23.043Z,91
2022-07-30T03:23:31.729Z,91
2022-07-30T03:28:39.573Z,92
2022-07-30T03:33:47.720Z,91
2022-07-30T03:38:56.082Z,92
2022-07-30T03:44:03.634Z,91
2022-07-30T03:49:11.257Z,91
2022-07-30T03:54:18.457Z,92
2022-07-30T03:59:26.299Z,90
2022-07-30T04:04:33.491Z,92
2022-07-30T04:09:41.272Z,91
2022-07-30T04:14:49.175Z,92
2022-07-30T04:19:56.967Z,90
2022-07-30T04:25:06.169Z,91
2022-07-30T04:30:12.916Z,90
2022-07-30T04:35:20.911Z,89
2022-07-30T04:40:34.133Z,91
2022-07-30T04:45:40.701Z,91
2022-07-30T04:50:48.804Z,91
2022-07-30T04:55:55.746Z,92
2022-07-30T05:01:04.072Z,91
2022-07-30T05:06:12.555Z,91
2022-07-30T05:11:19.298Z,91
2022-07-30T05:16:28.246Z,94
2022-07-30T05:21:35.602Z,92
2022-07-30T05:26:43.416Z,94
2022-07-30T05:31:51.307Z,90
2022-07-30T05:36:59.962Z,94
2022-07-30T05:42:07.571Z,92
2022-07-30T05:47:14.810Z,91
2022-07-30T05:52:22.813Z,92
2022-07-30T05:57:30.489Z,89
2022-07-30T06:02:38.581Z,89
2022-07-30T06:07:46.222Z,95
2022-07-30T06:12:53.337Z,94
2022-07-30T06:18:00.541Z,95
2022-07-30T06:23:08.757Z,96
2022-07-30T06:28:15.605Z,97
2022-07-30T06:33:22.174Z,97
2022-07-30T06:38:30.191Z,95
2022-07-30T06:43:37.420Z,98
2022-07-30T06:48:45.969Z,100
2022-07-30T06:53:53.519Z,98
2022-07-30T06:59:00.674Z,99
2022-07-30T07:04:08.198Z,99
2022-07-30T07:09:16.619Z,98
2022-07-30T07:14:23.682Z,98
2022-07-30T07:19:31.706Z,98
2022-07-30T07:24:39.565Z,99
2022-07-30T07:29:46.777Z,100
2022-07-30T07:34:54.341Z,100
2022-07-30T07:40:01.539Z,100
2022-07-30T07:45:09.738Z,100
2022-07-30T07:50:17.143Z,100
2022-07-30T07:55:25.445Z,100
2022-07-30T08:00:33.308Z,100
2022-07-30T08:05:40.102Z,100
2022-07-30T08:10:48.344Z,100
2022-07-30T08:15:56.799Z,100
2022-07-30T08:21:05.193Z,100
2022-07-30T08:26:12.307Z,100
2022-07-30T08:31:20.520Z,100
2022-07-30T08:36:27.667Z,100
2022-07-30T08:41:35.612Z,100
2022-07-30T08:46:43.493Z,100
2022-07-30T08:51:51.252Z,100
2022-07-30T08:56:58.544Z,100
2022-07-30T09:02:06.267Z,100
2022-07-30T09:07:14.184Z,100
2022-07-30T09:12:22.400Z,100
2022-07-30T09:17:30.610Z,100
2022-07-30T09:22:38.496Z,100
2022-07-30T09:27:47.375Z,100
2022-07-30T09:32:54.666Z,100
2022-07-30T09:38:02.712Z,100
2022-07-30T09:43:10.660Z,100
2022-07-30T09:48:18.793Z,100
2022-07-30T09:53:25.749Z,100
2022-07-30T09:58:32.521Z,100
2022-07-30T10:03:39.136Z,100
2022-07-30T10:08:48.128Z,100
2022-07-30T10:13:54.821Z,100
2022-07-30T10:19:03.723Z,100
2022-07-30T10:24:10.951Z,100
2022-07-30T10:29:18.898Z,100
2022-07-30T10:34:25.727Z,100
2022-07-30T10:39:36.508Z,100
2022-07-30T10:44:44.376Z,100
2022-07-30T10:49:52.224Z,100
2022-07-30T10:55:05.457Z,100
2022-07-30T11:00:14.260Z,100
2022-07-30T11:05:22.111Z,100
2022-07-30T11:10:29.993Z,100
2022-07-30T11:15:37.467Z,100
2022-07-30T11:20:46.043Z,100
2022-07-30T11:25:54.036Z,100
2022-07-30T11:31:02.002Z,100
2022-07-30T11:36:10.056Z,100
2022-07-30T11:41:18.109Z,100
2022-07-30T11:46:26.304Z,100
2022-07-30T11:51:34.853Z,100
2022-07-30T11:56:43.332Z,100
2022-07-30T12:01:51.780Z,100
2022-07-30T12:06:59.478Z,100
2022-07-30T12:12:06.094Z,100
2022-07-30T12:17:13.220Z,100
2022-07-30T12:22:25.538Z,100
2022-07-30T12:27:32.425Z,100
2022-07-30T12:32:40.102Z,100
2022-07-30T12:37:47.481Z,100
2022-07-30T12:42:53.655Z,99
2022-07-30T12:48:02.652Z,100
2022-07-30T12:53:10.047Z,100
2022-07-30T12:58:17.774Z,100
2022-07-30T13:03:25.755Z,100
2022-07-30T13:08:32.248Z,100
2022-07-30T13:13:40.316Z,100
2022-07-30T13:18:48.699Z,100
2022-07-30T13:23:56.836Z,100
2022-07-30T13:29:06.217Z,100
2022-07-30T13:34:13.423Z,100
2022-07-30T13:39:22.433Z,100
2022-07-30T13:44:29.699Z,100
2022-07-30T13:49:36.260Z,100
2022-07-30T13:54:43.558Z,100
2022-07-30T13:59:51.261Z,100
2022-07-30T14:04:58.646Z,100
2022-07-30T14:10:05.653Z,100
2022-07-30T14:15:12.478Z,100
2022-07-30T14:20:21.031Z,100
2022-07-30T14:25:29.685Z,100
2022-07-30T14:30:37.634Z,100
2022-07-30T14:35:45.141Z,100
2022-07-30T14:40:52.057Z,100
2022-07-30T14:45:59.475Z,100
2022-07-30T14:51:07.002Z,100
2022-07-30T14:56:14.311Z,100
2022-07-30T15:01:22.077Z,100
2022-07-30T15:06:30.524Z,100
2022-07-30T15:11:38.387Z,100
2022-07-30T15:16:45.061Z,100
2022-07-30T15:21:52.255Z,100
2022-07-30T15:27:00.059Z,100
2022-07-30T15:32:07.243Z,100
2022-07-30T15:37:15.847Z,100
2022-07-30T15:42:23.338Z,100
2022-07-30T15:47:31.223Z,100
2022-07-30T15:52:40.150Z,100
2022-07-30T15:57:47.803Z,100
2022-07-30T16:02:55.543Z,100
2022-07-30T16:08:02.866Z,100
2022-07-30T16:13:09.372Z,100
2022-07-30T16:18:17.213Z,100
2022-07-30T16:23:24.890Z,100
2022-07-30T16:28:33.369Z,100
2022-07-30T16:33:41.841Z,100
2022-07-30T16:38:48.905Z,100
2022-07-30T16:43:57.451Z,100
2022-07-30T16:49:05.719Z,100
2022-07-30T16:54:13.122Z,100
2022-07-30T16:59:20.103Z,100
2022-07-30T17:04:28.310Z,100
2022-07-30T17:09:35.611Z,100
2022-07-30T17:14:42.136Z,100
2022-07-30T17:19:50.042Z,100
2022-07-30T17:24:57.500Z,100
2022-07-30T17:30:03.739Z,100
2022-07-30T17:35:12.305Z,100
2022-07-30T17:40:20.576Z,100
2022-07-30T17:45:28.167Z,100
2022-07-30T17:50:36.365Z,100
2022-07-30T17:55:44.263Z,100
2022-07-30T18:00:51.744Z,100
2022-07-30T18:05:59.688Z,100
2022-07-30T18:11:07.537Z,100
2022-07-30T18:16:14.454Z,100
2022-07-30T18:21:22.005Z,100
2022-07-30T18:26:29.586Z,100
2022-07-30T18:31:37.771Z,100
2022-07-30T18:36:45.828Z,100
2022-07-30T18:41:53.642Z,100
2022-07-30T18:47:01.929Z,100
2022-07-30T18:52:10.135Z,100
2022-07-30T18:57:18.733Z,100
2022-07-30T19:02:26.035Z,100
2022-07-30T19:07:34.406Z,100
2022-07-30T19:12:41.783Z,100
2022-07-30T19:17:50.853Z,100
2022-07-30T19:22:58.221Z,100
2022-07-30T19:28:06.061Z,100
2022-07-30T19:33:13.265Z,100
2022-07-30T19:38:22.215Z,100
2022-07-30T19:43:30.571Z,100
2022-07-30T19:48:38.967Z,100
2022-07-30T19:53:46.542Z,100
2022-07-30T19:58:54.013Z,100
2022-07-30T20:04:01.491Z,97
2022-07-30T20:09:08.784Z,100
2022-07-30T20:14:15.337Z,100
2022-07-30T20:19:23.032Z,100
2022-07-30T20:24:29.748Z,100
2022-07-30T20:29:38.105Z,100
2022-07-30T20:34:46.013Z,100
2022-07-30T20:39:54.395Z,100
2022-07-30T20:45:01.060Z,100
2022-07-30T20:50:08.902Z,100
2022-07-30T20:55:16.458Z,100
2022-07-30T21:00:23.944Z,98
2022-07-30T21:05:31.869Z,100
2022-07-30T21:10:39.669Z,100
2022-07-30T21:15:46.866Z,98
2022-07-30T21:20:54.485Z,100
2022-07-30T21:26:01.261Z,99
2022-07-30T21:31:09.644Z,98
2022-07-30T21:36:16.931Z,99
2022-07-30T21:41:24.691Z,100
2022-07-30T21:46:33.771Z,100
2022-07-30T21:51:41.061Z,98
2022-07-30T21:56:48.221Z,98
2022-07-30T22:01:56.547Z,98
2022-07-30T22:07:03.925Z,98
2022-07-30T22:12:11.184Z,99
2022-07-30T22:17:19.021Z,98
2022-07-30T22:22:26.739Z,99
2022-07-30T22:27:35.187Z,98
2022-07-30T22:32:43.513Z,99
2022-07-30T22:37:50.504Z,99
2022-07-30T22:42:57.535Z,98
2022-07-30T22:48:05.307Z,97
2022-07-30T22:53:12.721Z,97
2022-07-30T22:58:19.824Z,98
2022-07-30T23:03:26.851Z,97
2022-07-30T23:08:34.177Z,97
2022-07-30T23:13:42.083Z,98
2022-07-30T23:18:49.611Z,97
2022-07-30T23:23:56.516Z,97
2022-07-30T23:29:04.042Z,96
2022-07-30T23:34:12.143Z,96
2022-07-30T23:39:20.305Z,96
2022-07-30T23:44:28.417Z,96
2022-07-30T23:49:35.810Z,99
2022-07-30T23:54:43.661Z,97
2022-07-30T23:59:50.652Z,96
